sensor_id;sensor_type;location;lat;lon;timestamp;pressure;altitude;pressure_sealevel;temperature;humidity
48774;BME280;34576;0.000;0.000;2022-07-17T00:00:29;97383.50;;;23.16;46.46
48774;BME280;34576;0.000;0.000;2022-07-17T00:07:29;97387.31;;;23.15;46.35
48774;BME280;34576;0.000;0.000;2022-07-17T00:14:29;97385.69;;;23.14;46.39
48774;BME280;34576;0.000;0.000;2022-07-17T00:21:30;97385.69;;;23.14;46.30
48774;BME280;34576;0.000;0.000;2022-07-17T00:28:30;97381.94;;;23.15;46.39
48774;BME280;34576;0.000;0.000;2022-07-17T00:35:30;97392.66;;;23.15;46.59
48774;BME280;34576;0.000;0.000;2022-07-17T00:42:30;97386.50;;;23.14;46.58
48774;BME280;34576;0.000;0.000;2022-07-17T00:49:31;97381.13;;;23.14;46.42
48774;BME280;34576;0.000;0.000;2022-07-17T00:56:31;97381.13;;;23.14;46.56
48774;BME280;34576;0.000;0.000;2022-07-17T01:03:31;97380.34;;;23.14;46.16
48774;BME280;34576;0.000;0.000;2022-07-17T01:10:32;97374.97;;;23.14;46.54
48774;BME280;34576;0.000;0.000;2022-07-17T01:17:32;97371.50;;;23.13;46.29
48774;BME280;34576;0.000;0.000;2022-07-17T01:24:32;97362.63;;;23.13;46.23
48774;BME280;34576;0.000;0.000;2022-07-17T01:31:33;97365.31;;;23.13;46.25
48774;BME280;34576;0.000;0.000;2022-07-17T01:38:33;97361.06;;;23.12;46.03
48774;BME280;34576;0.000;0.000;2022-07-17T01:45:33;97368.00;;;23.13;46.29
48774;BME280;34576;0.000;0.000;2022-07-17T01:52:35;97369.91;;;23.12;46.17
48774;BME280;34576;0.000;0.000;2022-07-17T01:59:37;97368.00;;;23.13;46.00
48774;BME280;34576;0.000;0.000;2022-07-17T02:06:37;97361.06;;;23.12;45.94
48774;BME280;34576;0.000;0.000;2022-07-17T02:13:37;97363.75;;;23.12;46.29
48774;BME280;34576;0.000;0.000;2022-07-17T02:20:38;97361.06;;;23.12;45.93
48774;BME280;34576;0.000;0.000;2022-07-17T02:27:39;97359.44;;;23.10;45.96
48774;BME280;34576;0.000;0.000;2022-07-17T02:34:39;97357.56;;;23.11;46.16
48774;BME280;34576;0.000;0.000;2022-07-17T02:41:39;97354.06;;;23.10;45.98
48774;BME280;34576;0.000;0.000;2022-07-17T02:48:40;97351.66;;;23.09;46.11
48774;BME280;34576;0.000;0.000;2022-07-17T02:55:41;97354.06;;;23.10;45.82
48774;BME280;34576;0.000;0.000;2022-07-17T03:02:41;97354.66;;;23.07;46.03
48774;BME280;34576;0.000;0.000;2022-07-17T03:09:42;97340.13;;;23.08;45.91
48774;BME280;34576;0.000;0.000;2022-07-17T03:16:42;97344.41;;;23.09;46.09
48774;BME280;34576;0.000;0.000;2022-07-17T03:23:42;97343.63;;;23.09;46.28
48774;BME280;34576;0.000;0.000;2022-07-17T03:30:43;97338.25;;;23.09;46.28
48774;BME280;34576;0.000;0.000;2022-07-17T03:37:43;97337.72;;;23.07;45.89
48774;BME280;34576;0.000;0.000;2022-07-17T03:44:44;97343.09;;;23.07;46.11
48774;BME280;34576;0.000;0.000;2022-07-17T03:51:44;97342.31;;;23.06;46.20
48774;BME280;34576;0.000;0.000;2022-07-17T03:58:45;97347.69;;;23.06;45.99
48774;BME280;34576;0.000;0.000;2022-07-17T04:05:45;97346.06;;;23.05;46.34
48774;BME280;34576;0.000;0.000;2022-07-17T04:12:45;97348.75;;;23.05;46.40
48774;BME280;34576;0.000;0.000;2022-07-17T04:19:46;97348.25;;;23.03;46.12
48774;BME280;34576;0.000;0.000;2022-07-17T04:26:46;97349.56;;;23.06;46.33
48774;BME280;34576;0.000;0.000;2022-07-17T04:33:46;97347.16;;;23.04;46.30
48774;BME280;34576;0.000;0.000;2022-07-17T04:40:46;97347.16;;;23.04;46.42
48774;BME280;34576;0.000;0.000;2022-07-17T04:47:47;97345.28;;;23.05;46.25
48774;BME280;34576;0.000;0.000;2022-07-17T04:54:47;97345.59;;;23.03;46.48
48774;BME280;34576;0.000;0.000;2022-07-17T05:01:47;97357.09;;;23.04;46.20
48774;BME280;34576;0.000;0.000;2022-07-17T05:08:47;97353.63;;;23.03;46.13
48774;BME280;34576;0.000;0.000;2022-07-17T05:15:48;97359.50;;;23.05;46.16
48774;BME280;34576;0.000;0.000;2022-07-17T05:22:49;97364.84;;;23.05;46.11
48774;BME280;34576;0.000;0.000;2022-07-17T05:29:49;97366.47;;;23.06;46.14
48774;BME280;34576;0.000;0.000;2022-07-17T05:36:50;97369.94;;;23.07;46.08
48774;BME280;34576;0.000;0.000;2022-07-17T05:43:50;97368.06;;;23.07;46.21
48774;BME280;34576;0.000;0.000;2022-07-17T05:50:50;97371.03;;;23.06;46.07
48774;BME280;34576;0.000;0.000;2022-07-17T05:57:51;97370.75;;;23.07;46.13
48774;BME280;34576;0.000;0.000;2022-07-17T06:04:51;97365.38;;;23.07;46.08
48774;BME280;34576;0.000;0.000;2022-07-17T06:11:51;97363.78;;;23.06;46.12
48774;BME280;34576;0.000;0.000;2022-07-17T06:18:52;97360.00;;;23.07;46.16
48774;BME280;34576;0.000;0.000;2022-07-17T06:25:52;97358.41;;;23.06;46.33
48774;BME280;34576;0.000;0.000;2022-07-17T06:32:52;97359.19;;;23.07;46.21
48774;BME280;34576;0.000;0.000;2022-07-17T06:39:52;97360.00;;;23.07;46.29
48774;BME280;34576;0.000;0.000;2022-07-17T06:46:53;97364.28;;;23.08;46.33
48774;BME280;34576;0.000;0.000;2022-07-17T06:53:53;97366.16;;;23.08;46.35
48774;BME280;34576;0.000;0.000;2022-07-17T07:00:53;97368.06;;;23.07;46.43
48774;BME280;34576;0.000;0.000;2022-07-17T07:07:54;97376.59;;;23.09;46.63
48774;BME280;34576;0.000;0.000;2022-07-17T07:14:54;97373.91;;;23.09;46.84
48774;BME280;34576;0.000;0.000;2022-07-17T07:21:55;97371.25;;;23.09;46.68
48774;BME280;34576;0.000;0.000;2022-07-17T07:28:57;97368.56;;;23.09;46.52
48774;BME280;34576;0.000;0.000;2022-07-17T07:35:57;97348.69;;;23.10;46.80
48774;BME280;34576;0.000;0.000;2022-07-17T07:42:57;97342.50;;;23.10;46.89
48774;BME280;34576;0.000;0.000;2022-07-17T07:49:58;97337.97;;;23.10;46.52
48774;BME280;34576;0.000;0.000;2022-07-17T07:56:58;97353.00;;;23.12;46.49
48774;BME280;34576;0.000;0.000;2022-07-17T08:03:58;97357.25;;;23.13;46.53
48774;BME280;34576;0.000;0.000;2022-07-17T08:10:59;97357.25;;;23.13;46.42
48774;BME280;34576;0.000;0.000;2022-07-17T08:17:59;97361.56;;;23.14;46.69
48774;BME280;34576;0.000;0.000;2022-07-17T08:24:59;97371.19;;;23.15;46.70
48774;BME280;34576;0.000;0.000;2022-07-17T08:32:00;97366.63;;;23.15;46.58
48774;BME280;34576;0.000;0.000;2022-07-17T08:39:00;97379.75;;;23.17;46.43
48774;BME280;34576;0.000;0.000;2022-07-17T08:46:00;97380.53;;;23.17;46.57
48774;BME280;34576;0.000;0.000;2022-07-17T08:53:01;97375.16;;;23.17;46.58
48774;BME280;34576;0.000;0.000;2022-07-17T09:00:02;97371.41;;;23.18;46.38
48774;BME280;34576;0.000;0.000;2022-07-17T09:07:04;97373.28;;;23.18;46.61
48774;BME280;34576;0.000;0.000;2022-07-17T09:14:05;97378.38;;;23.19;46.42
48774;BME280;34576;0.000;0.000;2022-07-17T09:21:05;97374.59;;;23.20;46.66
48774;BME280;34576;0.000;0.000;2022-07-17T09:28:06;97374.31;;;23.22;46.62
48774;BME280;34576;0.000;0.000;2022-07-17T09:35:10;97370.81;;;23.21;46.73
48774;BME280;34576;0.000;0.000;2022-07-17T09:42:20;97378.56;;;23.23;46.88
48774;BME280;34576;0.000;0.000;2022-07-17T09:49:22;97385.53;;;23.24;46.63
48774;BME280;34576;0.000;0.000;2022-07-17T09:56:26;97388.22;;;23.24;46.95
48774;BME280;34576;0.000;0.000;2022-07-17T10:03:26;97395.19;;;23.25;46.71
48774;BME280;34576;0.000;0.000;2022-07-17T10:10:27;97392.50;;;23.25;46.85
48774;BME280;34576;0.000;0.000;2022-07-17T10:17:28;97386.56;;;23.28;46.81
48774;BME280;34576;0.000;0.000;2022-07-17T10:24:29;97386.56;;;23.28;46.91
48774;BME280;34576;0.000;0.000;2022-07-17T10:31:33;97381.97;;;23.29;46.78
48774;BME280;34576;0.000;0.000;2022-07-17T10:38:40;97379.28;;;23.29;46.82
48774;BME280;34576;0.000;0.000;2022-07-17T10:45:42;97373.66;;;23.30;46.83
48774;BME280;34576;0.000;0.000;2022-07-17T10:52:43;97376.34;;;23.30;46.99
48774;BME280;34576;0.000;0.000;2022-07-17T10:59:43;97376.81;;;23.32;47.15
48774;BME280;34576;0.000;0.000;2022-07-17T11:06:43;97360.44;;;23.34;47.17
48774;BME280;34576;0.000;0.000;2022-07-17T11:13:44;97361.22;;;23.34;47.20
48774;BME280;34576;0.000;0.000;2022-07-17T11:20:51;97370.88;;;23.35;47.16
48774;BME280;34576;0.000;0.000;2022-07-17T11:27:52;97367.88;;;23.37;47.19
48774;BME280;34576;0.000;0.000;2022-07-17T11:34:52;97351.00;;;23.36;47.20
48774;BME280;34576;0.000;0.000;2022-07-17T11:41:53;97343.44;;;23.38;47.24
48774;BME280;34576;0.000;0.000;2022-07-17T11:48:53;97342.34;;;23.39;47.44
48774;BME280;34576;0.000;0.000;2022-07-17T11:55:54;97331.31;;;23.41;47.57
48774;BME280;34576;0.000;0.000;2022-07-17T12:02:58;97334.78;;;23.41;47.22
48774;BME280;34576;0.000;0.000;2022-07-17T12:09:59;97328.31;;;23.42;47.50
48774;BME280;34576;0.000;0.000;2022-07-17T12:17:03;97336.09;;;23.44;47.27
48774;BME280;34576;0.000;0.000;2022-07-17T12:24:04;97319.19;;;23.43;47.58
48774;BME280;34576;0.000;0.000;2022-07-17T12:31:05;97323.19;;;23.46;47.26
48774;BME280;34576;0.000;0.000;2022-07-17T12:38:06;97323.97;;;23.47;47.63
48774;BME280;34576;0.000;0.000;2022-07-17T12:45:07;97323.66;;;23.48;47.58
48774;BME280;34576;0.000;0.000;2022-07-17T12:52:07;97315.63;;;23.48;47.57
48774;BME280;34576;0.000;0.000;2022-07-17T12:59:08;97324.19;;;23.50;47.66
48774;BME280;34576;0.000;0.000;2022-07-17T13:06:08;97319.59;;;23.51;47.83
48774;BME280;34576;0.000;0.000;2022-07-17T13:13:08;97315.84;;;23.52;47.93
48774;BME280;34576;0.000;0.000;2022-07-17T13:20:09;97320.59;;;23.55;47.81
48774;BME280;34576;0.000;0.000;2022-07-17T13:27:10;97299.13;;;23.55;47.79
48774;BME280;34576;0.000;0.000;2022-07-17T13:34:10;97299.59;;;23.57;47.93
48774;BME280;34576;0.000;0.000;2022-07-17T13:41:10;97288.88;;;23.57;48.03
48774;BME280;34576;0.000;0.000;2022-07-17T13:48:10;97282.41;;;23.58;47.89
48774;BME280;34576;0.000;0.000;2022-07-17T13:55:11;97289.38;;;23.59;47.84
48774;BME280;34576;0.000;0.000;2022-07-17T14:02:11;97282.91;;;23.60;47.90
48774;BME280;34576;0.000;0.000;2022-07-17T14:09:11;97286.41;;;23.60;47.79
48774;BME280;34576;0.000;0.000;2022-07-17T14:16:12;97279.66;;;23.63;47.88
48774;BME280;34576;0.000;0.000;2022-07-17T14:23:12;97283.13;;;23.64;47.95
48774;BME280;34576;0.000;0.000;2022-07-17T14:30:12;97273.16;;;23.64;47.83
48774;BME280;34576;0.000;0.000;2022-07-17T14:37:12;97274.47;;;23.67;47.77
48774;BME280;34576;0.000;0.000;2022-07-17T14:44:13;97275.28;;;23.67;48.02
48774;BME280;34576;0.000;0.000;2022-07-17T14:51:13;97279.53;;;23.68;48.11
48774;BME280;34576;0.000;0.000;2022-07-17T14:58:14;97274.97;;;23.69;47.93
48774;BME280;34576;0.000;0.000;2022-07-17T15:05:14;97273.84;;;23.70;48.03
48774;BME280;34576;0.000;0.000;2022-07-17T15:12:14;97275.75;;;23.69;48.11
48774;BME280;34576;0.000;0.000;2022-07-17T15:19:14;97274.25;;;23.77;48.37
48774;BME280;34576;0.000;0.000;2022-07-17T15:26:15;97279.44;;;23.73;48.37
48774;BME280;34576;0.000;0.000;2022-07-17T15:33:15;97277.25;;;23.75;48.57
48774;BME280;34576;0.000;0.000;2022-07-17T15:40:15;97280.44;;;23.77;48.62
48774;BME280;34576;0.000;0.000;2022-07-17T15:47:16;97277.75;;;23.77;48.26
48774;BME280;34576;0.000;0.000;2022-07-17T15:54:16;97271.25;;;23.78;48.57
48774;BME280;34576;0.000;0.000;2022-07-17T16:01:17;97266.72;;;23.79;48.28
48774;BME280;34576;0.000;0.000;2022-07-17T16:08:17;97261.34;;;23.79;48.50
48774;BME280;34576;0.000;0.000;2022-07-17T16:15:17;97262.13;;;23.79;48.36
48774;BME280;34576;0.000;0.000;2022-07-17T16:22:18;97258.34;;;23.81;48.30
48774;BME280;34576;0.000;0.000;2022-07-17T16:29:18;97242.22;;;23.81;48.58
48774;BME280;34576;0.000;0.000;2022-07-17T16:36:18;97244.91;;;23.81;48.20
48774;BME280;34576;0.000;0.000;2022-07-17T16:43:18;97245.41;;;23.83;48.39
48774;BME280;34576;0.000;0.000;2022-07-17T16:50:19;97237.34;;;23.83;48.58
48774;BME280;34576;0.000;0.000;2022-07-17T16:57:19;97241.06;;;23.87;49.74
48774;BME280;34576;0.000;0.000;2022-07-17T17:04:19;97242.03;;;24.05;49.71
48774;BME280;34576;0.000;0.000;2022-07-17T17:11:20;97238.16;;;23.97;49.69
48774;BME280;34576;0.000;0.000;2022-07-17T17:18:20;97251.50;;;24.53;48.86
48774;BME280;34576;0.000;0.000;2022-07-17T17:25:21;97247.31;;;23.96;49.19
48774;BME280;34576;0.000;0.000;2022-07-17T17:32:21;97250.91;;;23.91;49.38
48774;BME280;34576;0.000;0.000;2022-07-17T17:39:22;97242.03;;;23.91;51.06
48774;BME280;34576;0.000;0.000;2022-07-17T17:46:22;97249.03;;;23.92;52.74
48774;BME280;34576;0.000;0.000;2022-07-17T17:53:22;97251.19;;;23.90;51.49
48774;BME280;34576;0.000;0.000;2022-07-17T18:00:22;97261.16;;;23.89;50.67
48774;BME280;34576;0.000;0.000;2022-07-17T18:07:23;97271.13;;;23.89;50.18
48774;BME280;34576;0.000;0.000;2022-07-17T18:14:23;97264.72;;;23.85;50.13
48774;BME280;34576;0.000;0.000;2022-07-17T18:21:23;97277.06;;;23.86;49.83
48774;BME280;34576;0.000;0.000;2022-07-17T18:28:24;97284.84;;;23.87;50.95
48774;BME280;34576;0.000;0.000;2022-07-17T18:35:24;97292.91;;;23.87;50.73
48774;BME280;34576;0.000;0.000;2022-07-17T18:42:24;97286.72;;;23.87;50.33
48774;BME280;34576;0.000;0.000;2022-07-17T18:49:25;97296.38;;;23.88;51.56
48774;BME280;34576;0.000;0.000;2022-07-17T18:56:25;97298.47;;;23.91;55.71
48774;BME280;34576;0.000;0.000;2022-07-17T19:03:26;97300.84;;;23.92;56.91
48774;BME280;34576;0.000;0.000;2022-07-17T19:10:27;97304.34;;;23.93;55.79
48774;BME280;34576;0.000;0.000;2022-07-17T19:17:27;97315.09;;;23.93;55.57
48774;BME280;34576;0.000;0.000;2022-07-17T19:24:27;97323.16;;;23.93;55.51
48774;BME280;34576;0.000;0.000;2022-07-17T19:31:27;97333.09;;;23.92;54.92
48774;BME280;34576;0.000;0.000;2022-07-17T19:38:28;97342.75;;;23.93;52.92
48774;BME280;34576;0.000;0.000;2022-07-17T19:45:28;97367.84;;;23.89;46.38
48774;BME280;34576;0.000;0.000;2022-07-17T19:52:28;97369.78;;;23.83;44.83
48774;BME280;34576;0.000;0.000;2022-07-17T19:59:29;97374.34;;;23.83;43.98
48774;BME280;34576;0.000;0.000;2022-07-17T20:06:29;97384.25;;;23.54;40.42
48774;BME280;34576;0.000;0.000;2022-07-17T20:13:30;97397.63;;;23.40;39.62
48774;BME280;34576;0.000;0.000;2022-07-17T20:20:30;97398.66;;;23.25;40.04
48774;BME280;34576;0.000;0.000;2022-07-17T20:27:30;97395.06;;;23.16;40.17
48774;BME280;34576;0.000;0.000;2022-07-17T20:34:31;97386.13;;;23.21;39.86
48774;BME280;34576;0.000;0.000;2022-07-17T20:41:31;97385.69;;;22.95;40.35
48774;BME280;34576;0.000;0.000;2022-07-17T20:48:31;97388.72;;;22.88;39.49
48774;BME280;34576;0.000;0.000;2022-07-17T20:55:32;97384.97;;;22.89;40.31
48774;BME280;34576;0.000;0.000;2022-07-17T21:02:36;97385.09;;;22.79;40.74
48774;BME280;34576;0.000;0.000;2022-07-17T21:09:36;97376.69;;;22.66;40.73
48774;BME280;34576;0.000;0.000;2022-07-17T21:16:36;97385.38;;;22.58;40.94
48774;BME280;34576;0.000;0.000;2022-07-17T21:23:37;97376.09;;;22.50;40.54
48774;BME280;34576;0.000;0.000;2022-07-17T21:30:37;97381.16;;;22.52;40.63
48774;BME280;34576;0.000;0.000;2022-07-17T21:37:38;97392.00;;;22.41;41.30
48774;BME280;34576;0.000;0.000;2022-07-17T21:44:38;97388.56;;;22.36;41.10
48774;BME280;34576;0.000;0.000;2022-07-17T21:51:38;97389.00;;;22.19;41.54
48774;BME280;34576;0.000;0.000;2022-07-17T21:58:39;97401.41;;;22.15;41.07
48774;BME280;34576;0.000;0.000;2022-07-17T22:05:39;97399.38;;;22.01;40.72
48774;BME280;34576;0.000;0.000;2022-07-17T22:12:40;97407.19;;;21.98;40.49
48774;BME280;34576;0.000;0.000;2022-07-17T22:19:40;97396.31;;;21.89;40.69
48774;BME280;34576;0.000;0.000;2022-07-17T22:26:41;97386.44;;;21.84;40.65
48774;BME280;34576;0.000;0.000;2022-07-17T22:33:41;97381.63;;;21.81;40.64
48774;BME280;34576;0.000;0.000;2022-07-17T22:40:42;97380.41;;;21.68;40.93
48774;BME280;34576;0.000;0.000;2022-07-17T22:47:42;97376.78;;;21.59;40.95
48774;BME280;34576;0.000;0.000;2022-07-17T22:54:42;97374.91;;;21.54;40.36
48774;BME280;34576;0.000;0.000;2022-07-17T23:01:43;97380.03;;;21.51;40.38
48774;BME280;34576;0.000;0.000;2022-07-17T23:08:43;97372.41;;;21.34;40.35
48774;BME280;34576;0.000;0.000;2022-07-17T23:15:43;97370.28;;;21.31;40.33
48774;BME280;34576;0.000;0.000;2022-07-17T23:22:44;97376.34;;;21.42;39.71
48774;BME280;34576;0.000;0.000;2022-07-17T23:29:44;97383.78;;;21.55;39.85
48774;BME280;34576;0.000;0.000;2022-07-17T23:36:44;97378.63;;;21.59;39.47
48774;BME280;34576;0.000;0.000;2022-07-17T23:43:44;97369.41;;;21.41;39.92
48774;BME280;34576;0.000;0.000;2022-07-17T23:50:45;97370.75;;;21.38;40.37
48774;BME280;34576;0.000;0.000;2022-07-17T23:57:45;97358.72;;;21.35;40.11
